createdAt,value
2022-11-20T00:01:20.003Z,-2.03
2022-11-20T00:03:48.562Z,-2.01
2022-11-20T00:06:19.662Z,-1.98
2022-11-20T00:08:48.318Z,-1.92
2022-11-20T00:11:19.166Z,-1.90
2022-11-20T00:13:49.623Z,-1.89
2022-11-20T00:16:22.064Z,-1.90
2022-11-20T00:18:50.472Z,-1.89
2022-11-20T00:21:22.306Z,-1.94
2022-11-20T00:23:52.084Z,-1.98
2022-11-20T00:26:23.692Z,-2.10
2022-11-20T00:28:54.176Z,-2.10
2022-11-20T00:31:23.586Z,-2.09
2022-11-20T00:33:52.202Z,-2.14
2022-11-20T00:36:21.917Z,-2.20
2022-11-20T00:38:52.665Z,-2.24
2022-11-20T00:41:20.508Z,-2.26
2022-11-20T00:43:48.587Z,-2.25
2022-11-20T00:46:19.328Z,-2.20
2022-11-20T00:48:49.488Z,-2.20
2022-11-20T00:51:20.589Z,-2.30
2022-11-20T00:53:48.729Z,-2.32
2022-11-20T00:56:19.240Z,-2.42
2022-11-20T00:58:49.531Z,-2.40
2022-11-20T01:01:20.168Z,-2.36
2022-11-20T01:03:52.245Z,-2.38
2022-11-20T01:06:23.312Z,-2.44
2022-11-20T01:08:54.233Z,-2.48
2022-11-20T01:11:25.158Z,-2.52
2022-11-20T01:13:55.363Z,-2.59
2022-11-20T01:16:28.168Z,-2.48
2022-11-20T01:19:01.749Z,-2.48
2022-11-20T01:21:32.280Z,-2.49
2022-11-20T01:24:00.865Z,-2.50
2022-11-20T01:26:31.423Z,-2.57
2022-11-20T01:29:00.587Z,-2.49
2022-11-20T01:31:31.919Z,-2.47
2022-11-20T01:34:04.470Z,-2.47
2022-11-20T01:36:35.007Z,-2.44
2022-11-20T01:39:08.486Z,-2.44
2022-11-20T01:41:54.713Z,-2.46
2022-11-20T01:44:46.617Z,-2.44
2022-11-20T01:47:18.397Z,-2.49
2022-11-20T01:49:54.502Z,-2.53
2022-11-20T01:52:28.641Z,-2.55
2022-11-20T01:55:04.639Z,-2.59
2022-11-20T01:57:36.870Z,-2.59
2022-11-20T02:00:10.575Z,-2.60
2022-11-20T02:02:45.818Z,-2.56
2022-11-20T02:05:26.383Z,-2.54
2022-11-20T02:07:58.823Z,-2.51
2022-11-20T02:10:28.923Z,-2.49
2022-11-20T02:13:16.251Z,-2.56
2022-11-20T02:15:44.989Z,-2.56
2022-11-20T02:18:16.992Z,-2.58
2022-11-20T02:20:49.456Z,-2.53
2022-11-20T02:23:30.483Z,-2.52
2022-11-20T02:26:04.422Z,-2.52
2022-11-20T02:28:32.494Z,-2.55
2022-11-20T02:31:00.297Z,-2.58
2022-11-20T02:33:28.129Z,-2.58
2022-11-20T02:35:55.858Z,-2.53
2022-11-20T02:38:24.250Z,-2.43
2022-11-20T02:40:55.460Z,-2.38
2022-11-20T02:43:25.120Z,-2.38
2022-11-20T02:45:52.996Z,-2.44
2022-11-20T02:48:20.761Z,-2.51
2022-11-20T02:50:48.566Z,-2.61
2022-11-20T02:53:16.452Z,-2.65
2022-11-20T02:55:44.303Z,-2.70
2022-11-20T02:58:12.175Z,-2.80
2022-11-20T03:00:41.384Z,-2.73
2022-11-20T03:03:09.208Z,-2.77
2022-11-20T03:05:36.992Z,-2.92
2022-11-20T03:08:05.319Z,-2.85
2022-11-20T03:10:33.087Z,-2.85
2022-11-20T03:13:00.861Z,-2.86
2022-11-20T03:15:28.585Z,-2.89
2022-11-20T03:17:57.827Z,-3.07
2022-11-20T03:20:25.755Z,-3.06
2022-11-20T03:22:55.891Z,-3.06
2022-11-20T03:25:23.726Z,-3.06
2022-11-20T03:27:51.950Z,-3.14
2022-11-20T03:30:19.889Z,-3.25
2022-11-20T03:32:47.695Z,-3.20
2022-11-20T03:35:17.048Z,-3.17
2022-11-20T03:37:46.517Z,-3.15
2022-11-20T03:40:14.396Z,-3.09
2022-11-20T03:42:47.992Z,-3.05
2022-11-20T03:45:18.552Z,-3.02
2022-11-20T03:47:47.100Z,-2.99
2022-11-20T03:50:16.509Z,-2.97
2022-11-20T03:52:44.313Z,-2.97
2022-11-20T03:55:12.217Z,-3.03
2022-11-20T03:57:39.975Z,-3.04
2022-11-20T04:00:09.294Z,-3.06
2022-11-20T04:02:37.201Z,-3.07
2022-11-20T04:05:05.986Z,-2.96
2022-11-20T04:07:36.416Z,-2.87
2022-11-20T04:10:05.446Z,-2.83
2022-11-20T04:12:34.471Z,-2.81
2022-11-20T04:15:02.332Z,-2.74
2022-11-20T04:17:30.101Z,-2.77
2022-11-20T04:19:57.849Z,-2.81
2022-11-20T04:22:25.696Z,-2.83
2022-11-20T04:24:54.828Z,-2.79
2022-11-20T04:27:22.612Z,-2.85
2022-11-20T04:29:50.510Z,-2.88
2022-11-20T04:32:18.354Z,-2.86
2022-11-20T04:34:46.151Z,-2.86
2022-11-20T04:37:13.969Z,-2.87
2022-11-20T04:39:42.090Z,-2.81
2022-11-20T04:42:29.675Z,-2.80
2022-11-20T04:44:58.488Z,-2.78
2022-11-20T04:47:26.262Z,-2.78
2022-11-20T04:49:56.099Z,-2.75
2022-11-20T04:52:23.862Z,-2.75
2022-11-20T04:54:53.801Z,-2.80
2022-11-20T04:57:23.024Z,-2.83
2022-11-20T04:59:50.719Z,-2.90
2022-11-20T05:02:18.892Z,-2.97
2022-11-20T05:04:46.739Z,-2.98
2022-11-20T05:07:14.697Z,-2.96
2022-11-20T05:09:42.827Z,-2.99
2022-11-20T05:12:11.097Z,-2.92
2022-11-20T05:14:40.377Z,-2.89
2022-11-20T05:17:11.872Z,-2.92
2022-11-20T05:19:39.684Z,-2.91
2022-11-20T05:22:07.536Z,-2.87
2022-11-20T05:24:35.679Z,-2.84
2022-11-20T05:27:03.682Z,-2.85
2022-11-20T05:29:31.462Z,-2.78
2022-11-20T05:32:00.604Z,-2.78
2022-11-20T05:34:28.421Z,-2.81
2022-11-20T05:36:56.217Z,-2.87
2022-11-20T05:39:24.264Z,-3.07
2022-11-20T05:42:12.266Z,-3.19
2022-11-20T05:44:40.198Z,-3.23
2022-11-20T05:47:09.290Z,-3.23
2022-11-20T05:49:37.058Z,-3.25
2022-11-20T05:52:05.089Z,-3.26
2022-11-20T05:54:33.286Z,-3.31
2022-11-20T05:57:01.186Z,-3.37
2022-11-20T05:59:28.909Z,-3.41
2022-11-20T06:01:56.702Z,-3.51
2022-11-20T06:04:26.047Z,-3.59
2022-11-20T06:06:53.912Z,-3.60
2022-11-20T06:09:21.885Z,-3.56
2022-11-20T06:11:49.862Z,-3.65
2022-11-20T06:14:17.735Z,-3.71
2022-11-20T06:16:45.478Z,-3.69
2022-11-20T06:19:13.429Z,-3.75
2022-11-20T06:21:42.581Z,-3.76
2022-11-20T06:24:11.363Z,-3.75
2022-11-20T06:26:39.267Z,-3.71
2022-11-20T06:29:07.300Z,-3.67
2022-11-20T06:31:38.454Z,-3.68
2022-11-20T06:34:07.176Z,-3.67
2022-11-20T06:36:35.070Z,-3.72
2022-11-20T06:39:04.652Z,-3.73
2022-11-20T06:41:32.372Z,-3.67
2022-11-20T06:44:00.266Z,-3.69
2022-11-20T06:46:29.129Z,-3.80
2022-11-20T06:48:56.938Z,-3.79
2022-11-20T06:51:24.786Z,-3.79
2022-11-20T06:53:52.735Z,-3.74
2022-11-20T06:56:21.904Z,-3.78
2022-11-20T06:58:49.643Z,-3.72
2022-11-20T07:01:17.887Z,-3.71
2022-11-20T07:03:50.042Z,-3.71
2022-11-20T07:06:20.686Z,-3.66
2022-11-20T07:08:48.475Z,-3.58
2022-11-20T07:11:16.257Z,-3.55
2022-11-20T07:13:45.460Z,-3.55
2022-11-20T07:16:13.245Z,-3.53
2022-11-20T07:18:44.765Z,-3.54
2022-11-20T07:21:15.764Z,-3.48
2022-11-20T07:23:43.692Z,-3.41
2022-11-20T07:26:12.331Z,-3.28
2022-11-20T07:28:40.249Z,-3.21
2022-11-20T07:31:11.482Z,-3.22
2022-11-20T07:33:41.307Z,-3.21
2022-11-20T07:36:09.533Z,-3.17
2022-11-20T07:38:38.428Z,-3.05
2022-11-20T07:41:06.455Z,-2.89
2022-11-20T07:43:39.809Z,-2.76
2022-11-20T07:46:10.411Z,-2.61
2022-11-20T07:48:38.242Z,-2.46
2022-11-20T07:51:06.831Z,-2.38
2022-11-20T07:53:34.706Z,-2.27
2022-11-20T07:56:03.766Z,-2.12
2022-11-20T07:58:33.916Z,-2.16
2022-11-20T08:01:05.787Z,-2.10
2022-11-20T08:03:38.431Z,-2.00
2022-11-20T08:06:07.614Z,-1.78
2022-11-20T08:08:38.882Z,-1.59
2022-11-20T08:11:28.523Z,-1.52
2022-11-20T08:14:14.698Z,-1.35
2022-11-20T08:16:44.250Z,-1.21
2022-11-20T08:19:14.995Z,-1.17
2022-11-20T08:21:43.684Z,-1.02
2022-11-20T08:24:12.606Z,-0.78
2022-11-20T08:26:42.151Z,-0.64
2022-11-20T08:29:10.001Z,-0.54
2022-11-20T08:31:37.863Z,-0.41
2022-11-20T08:34:09.253Z,-0.31
2022-11-20T08:36:38.675Z,-0.07
2022-11-20T08:39:06.901Z,0.03
2022-11-20T08:41:34.929Z,0.15
2022-11-20T08:44:05.696Z,0.36
2022-11-20T08:46:38.006Z,0.46
2022-11-20T08:49:08.588Z,0.46
2022-11-20T08:51:39.186Z,0.55
2022-11-20T08:54:08.373Z,0.56
2022-11-20T08:56:36.882Z,0.68
2022-11-20T09:01:53.170Z,0.92
2022-11-20T09:04:21.539Z,1.09
2022-11-20T09:06:52.260Z,1.28
2022-11-20T09:09:20.516Z,1.31
2022-11-20T09:11:50.754Z,1.39
2022-11-20T09:14:18.654Z,1.50
2022-11-20T09:16:47.467Z,1.51
2022-11-20T09:22:04.852Z,1.71
2022-11-20T09:24:32.790Z,1.91
2022-11-20T09:27:04.416Z,2.04
2022-11-20T09:29:33.833Z,2.13
2022-11-20T09:32:01.581Z,2.21
2022-11-20T09:34:29.459Z,2.27
2022-11-20T09:36:58.549Z,2.33
2022-11-20T09:39:29.474Z,2.43
2022-11-20T09:42:23.850Z,2.57
2022-11-20T09:45:13.030Z,2.80
2022-11-20T09:48:02.992Z,2.78
2022-11-20T09:50:36.118Z,2.96
2022-11-20T09:53:16.594Z,3.10
2022-11-20T09:55:48.078Z,3.41
2022-11-20T09:58:26.692Z,3.77
2022-11-20T10:00:57.717Z,4.05
2022-11-20T10:03:40.742Z,4.15
2022-11-20T10:06:17.932Z,4.27
2022-11-20T10:08:58.311Z,4.50
2022-11-20T10:11:46.752Z,4.56
2022-11-20T10:14:31.433Z,4.66
2022-11-20T10:17:15.214Z,4.68
2022-11-20T10:20:04.122Z,4.69
2022-11-20T10:22:54.636Z,4.77
2022-11-20T10:25:31.942Z,4.92
2022-11-20T10:28:35.748Z,4.97
2022-11-20T10:31:10.667Z,5.20
2022-11-20T10:34:10.554Z,5.34
2022-11-20T10:36:41.963Z,5.25
2022-11-20T10:39:25.509Z,5.23
2022-11-20T10:41:57.548Z,5.37
2022-11-20T10:44:53.733Z,5.53
2022-11-20T10:47:26.450Z,5.68
2022-11-20T10:49:59.143Z,6.11
2022-11-20T10:52:42.778Z,6.12
2022-11-20T10:55:28.626Z,6.15
2022-11-20T10:58:14.317Z,6.21
2022-11-20T11:00:43.518Z,6.33
2022-11-20T11:03:25.155Z,6.12
2022-11-20T11:06:00.499Z,6.09
2022-11-20T11:08:35.966Z,6.27
2022-11-20T11:11:22.350Z,6.33
2022-11-20T11:13:51.075Z,6.30
2022-11-20T11:16:24.677Z,6.53
2022-11-20T11:18:53.003Z,6.72
2022-11-20T11:21:25.835Z,6.67
2022-11-20T11:24:26.947Z,7.00
2022-11-20T11:26:57.367Z,7.20
2022-11-20T11:29:27.697Z,7.52
2022-11-20T11:32:07.419Z,7.90
2022-11-20T11:34:35.617Z,8.06
2022-11-20T11:37:06.026Z,8.19
2022-11-20T11:39:44.012Z,8.50
2022-11-20T11:42:19.820Z,8.72
2022-11-20T11:45:10.108Z,8.30
2022-11-20T11:47:49.073Z,8.32
2022-11-20T11:50:22.063Z,8.31
2022-11-20T11:53:02.859Z,8.25
2022-11-20T11:55:38.254Z,8.23
2022-11-20T11:58:18.579Z,8.29
2022-11-20T12:00:58.155Z,7.96
2022-11-20T12:03:37.332Z,8.02
2022-11-20T12:06:13.581Z,7.91
2022-11-20T12:08:52.963Z,7.60
2022-11-20T12:11:38.596Z,7.45
2022-11-20T12:14:17.973Z,7.04
2022-11-20T12:16:45.845Z,6.88
2022-11-20T12:19:15.718Z,6.82
2022-11-20T12:22:01.959Z,6.68
2022-11-20T12:25:00.144Z,6.57
2022-11-20T12:27:53.160Z,6.53
2022-11-20T12:30:25.709Z,6.58
2022-11-20T12:33:27.490Z,6.39
2022-11-20T12:36:18.893Z,6.24
2022-11-20T12:39:03.878Z,6.32
2022-11-20T12:42:15.659Z,6.28
2022-11-20T12:45:21.158Z,6.30
2022-11-20T12:48:24.242Z,6.15
2022-11-20T12:51:24.957Z,6.43
2022-11-20T12:54:22.790Z,6.37
2022-11-20T12:57:03.972Z,6.18
2022-11-20T13:00:05.603Z,5.97
2022-11-20T13:03:06.032Z,5.75
2022-11-20T13:05:52.153Z,5.69
2022-11-20T13:08:25.763Z,5.73
2022-11-20T13:11:04.641Z,5.92
2022-11-20T13:13:49.850Z,5.88
2022-11-20T13:16:28.313Z,5.87
2022-11-20T13:18:56.490Z,5.84
2022-11-20T13:21:39.005Z,5.87
2022-11-20T13:24:27.194Z,5.92
2022-11-20T13:27:19.236Z,5.95
2022-11-20T13:30:01.309Z,6.06
2022-11-20T13:32:33.350Z,6.13
2022-11-20T13:35:03.968Z,6.00
2022-11-20T13:37:35.609Z,6.05
2022-11-20T13:40:23.094Z,5.90
2022-11-20T13:43:04.956Z,5.85
2022-11-20T13:45:36.639Z,5.80
2022-11-20T13:48:21.602Z,5.91
2022-11-20T13:51:05.197Z,5.85
2022-11-20T13:54:45.582Z,5.91
2022-11-20T13:57:42.374Z,5.81
2022-11-20T14:00:15.595Z,5.71
2022-11-20T14:02:45.192Z,5.70
2022-11-20T14:05:23.762Z,5.62
2022-11-20T14:08:25.690Z,5.60
2022-11-20T14:11:05.687Z,5.63
2022-11-20T14:13:35.039Z,5.64
2022-11-20T15:17:24.522Z,5.14
2022-11-20T15:19:54.254Z,5.14
2022-11-20T15:22:22.044Z,5.07
2022-11-20T15:24:49.878Z,5.07
2022-11-20T15:27:17.845Z,5.14
2022-11-20T15:29:45.597Z,5.12
2022-11-20T15:32:13.846Z,5.17
2022-11-20T15:34:43.391Z,5.10
2022-11-20T15:37:11.099Z,5.10
2022-11-20T15:39:38.817Z,5.15
2022-11-20T15:42:06.630Z,5.07
2022-11-20T15:44:34.444Z,5.04
2022-11-20T15:47:02.223Z,4.93
2022-11-20T15:49:30.131Z,4.95
2022-11-20T15:51:59.180Z,4.87
2022-11-20T15:54:27.310Z,4.90
2022-11-20T15:56:55.431Z,4.89
2022-11-20T15:59:23.476Z,4.87
2022-11-20T16:01:51.413Z,4.85
2022-11-20T16:04:19.514Z,4.80
2022-11-20T16:06:49.264Z,4.83
2022-11-20T16:09:18.479Z,4.94
2022-11-20T16:11:46.176Z,4.97
2022-11-20T16:14:33.311Z,5.04
2022-11-20T16:17:02.496Z,5.18
2022-11-20T16:19:30.320Z,5.13
2022-11-20T16:22:02.708Z,5.13
2022-11-20T16:24:32.533Z,5.11
2022-11-20T16:27:00.472Z,5.24
2022-11-20T16:29:28.294Z,5.09
2022-11-20T16:31:57.794Z,5.08
2022-11-20T16:34:25.912Z,5.03
2022-11-20T16:36:54.015Z,5.11
2022-11-20T16:39:23.984Z,4.93
2022-11-20T16:41:53.411Z,4.84
2022-11-20T16:44:21.724Z,4.90
2022-11-20T16:46:49.976Z,4.83
2022-11-20T16:49:17.748Z,4.76
2022-11-20T16:51:45.949Z,4.79
2022-11-20T16:54:17.857Z,4.84
2022-11-20T16:56:47.937Z,4.59
2022-11-20T16:59:17.832Z,4.61
2022-11-20T17:01:45.701Z,4.52
2022-11-20T17:04:13.790Z,4.51
2022-11-20T17:06:44.435Z,4.27
2022-11-20T17:09:13.696Z,4.31
2022-11-20T17:11:41.403Z,4.50
2022-11-20T17:14:11.861Z,4.34
2022-11-20T17:16:41.278Z,4.28
2022-11-20T17:19:09.157Z,4.20
2022-11-20T17:21:38.017Z,4.15
2022-11-20T17:24:09.235Z,4.11
2022-11-20T17:26:40.341Z,4.16
2022-11-20T17:29:11.840Z,4.02
2022-11-20T17:31:42.551Z,4.03
2022-11-20T17:34:14.986Z,3.96
2022-11-20T17:36:46.931Z,3.92
2022-11-20T17:39:17.186Z,3.74
2022-11-20T17:41:45.907Z,3.80
2022-11-20T17:44:14.047Z,3.73
2022-11-20T17:46:43.222Z,3.70
2022-11-20T17:49:11.029Z,3.51
2022-11-20T17:51:40.574Z,3.42
2022-11-20T17:54:08.477Z,3.38
2022-11-20T17:56:55.596Z,3.24
2022-11-20T17:59:24.574Z,3.31
2022-11-20T18:01:54.641Z,3.20
2022-11-20T18:04:23.570Z,3.18
2022-11-20T18:06:51.675Z,3.22
2022-11-20T18:09:19.473Z,3.04
2022-11-20T18:11:47.201Z,3.03
2022-11-20T18:14:28.750Z,2.96
2022-11-20T18:17:00.940Z,2.80
2022-11-20T18:19:32.868Z,2.81
2022-11-20T18:22:04.033Z,2.76
2022-11-20T18:24:33.022Z,2.80
2022-11-20T18:27:00.915Z,2.72
2022-11-20T18:29:30.974Z,2.72
2022-11-20T18:32:00.895Z,2.65
2022-11-20T18:34:29.743Z,2.72
2022-11-20T18:36:58.066Z,2.70
2022-11-20T18:39:26.052Z,2.63
2022-11-20T18:42:13.390Z,2.70
2022-11-20T18:44:54.847Z,2.68
2022-11-20T18:51:10.493Z,2.67
2022-11-20T18:53:44.365Z,2.74
2022-11-20T18:56:14.800Z,2.68
2022-11-20T18:58:42.536Z,2.73
2022-11-20T19:01:20.210Z,2.70
2022-11-20T19:04:19.828Z,2.67
2022-11-20T19:06:52.741Z,2.61
2022-11-20T19:09:24.031Z,2.60
2022-11-20T19:11:52.273Z,2.67
2022-11-20T19:14:20.447Z,2.63
2022-11-20T19:16:49.226Z,2.67
2022-11-20T19:19:17.980Z,2.59
2022-11-20T19:21:45.810Z,2.61
2022-11-20T19:24:14.286Z,2.51
2022-11-20T19:26:43.753Z,2.47
2022-11-20T19:29:15.361Z,2.54
2022-11-20T19:31:43.419Z,2.50
2022-11-20T19:34:12.029Z,2.58
2022-11-20T19:36:44.681Z,2.58
2022-11-20T19:39:13.274Z,2.56
2022-11-20T19:41:43.169Z,2.54
2022-11-20T19:44:14.033Z,2.54
2022-11-20T19:46:45.290Z,2.65
2022-11-20T19:49:14.676Z,2.56
2022-11-20T19:51:47.452Z,2.57
2022-11-20T19:54:16.624Z,2.60
2022-11-20T19:56:47.037Z,2.55
2022-11-20T19:59:15.229Z,2.51
2022-11-20T20:01:43.643Z,2.50
2022-11-20T20:04:11.656Z,2.50
2022-11-20T20:06:40.101Z,2.40
2022-11-20T20:09:10.352Z,2.39
2022-11-20T20:11:39.562Z,2.41
2022-11-20T20:14:14.372Z,2.40
2022-11-20T20:16:43.278Z,2.49
2022-11-20T20:19:14.359Z,2.49
2022-11-20T20:21:42.524Z,2.51
2022-11-20T20:24:11.609Z,2.55
2022-11-20T20:26:39.878Z,2.51
2022-11-20T20:29:09.272Z,2.51
2022-11-20T20:31:37.100Z,2.42
2022-11-20T20:34:05.924Z,2.44
2022-11-20T20:36:33.829Z,2.48
2022-11-20T20:39:04.484Z,2.39
2022-11-20T20:41:32.756Z,2.42
2022-11-20T20:44:20.425Z,2.39
2022-11-20T20:46:51.776Z,2.45
2022-11-20T20:49:19.705Z,2.44
2022-11-20T20:51:47.615Z,2.48
2022-11-20T20:54:15.373Z,2.45
2022-11-20T20:56:43.327Z,2.43
2022-11-20T20:59:14.191Z,2.38
2022-11-20T21:01:41.975Z,2.34
2022-11-20T21:04:11.772Z,2.29
2022-11-20T21:06:39.592Z,2.34
2022-11-20T21:09:07.561Z,2.34
2022-11-20T21:11:35.458Z,2.35
2022-11-20T21:14:03.439Z,2.37
2022-11-20T21:16:40.759Z,2.43
2022-11-20T21:19:08.830Z,2.52
2022-11-20T21:21:57.008Z,2.50
2022-11-20T21:24:25.531Z,2.46
2022-11-20T21:26:54.068Z,2.57
2022-11-20T21:29:26.419Z,2.55
2022-11-20T21:31:54.963Z,2.54
2022-11-20T21:34:24.596Z,2.63
2022-11-20T21:36:54.119Z,2.64
2022-11-20T21:39:22.199Z,2.66
2022-11-20T21:41:50.258Z,2.62
2022-11-20T21:44:33.609Z,2.69
2022-11-20T21:47:01.474Z,2.74
2022-11-20T21:49:29.608Z,2.79
2022-11-20T21:51:58.788Z,2.75
2022-11-20T21:54:26.974Z,2.90
2022-11-20T21:56:54.879Z,2.95
2022-11-20T21:59:22.955Z,3.00
2022-11-20T22:01:50.840Z,3.02
2022-11-20T22:04:18.796Z,3.07
2022-11-20T22:06:46.789Z,3.12
2022-11-20T22:09:16.582Z,3.14
2022-11-20T22:11:44.370Z,3.14
2022-11-20T22:14:24.915Z,3.19
2022-11-20T22:16:54.096Z,3.30
2022-11-20T22:19:23.520Z,3.18
2022-11-20T22:21:51.898Z,3.10
2022-11-20T22:24:23.215Z,3.13
2022-11-20T22:26:51.618Z,3.20
2022-11-20T22:29:21.449Z,3.14
2022-11-20T22:31:52.969Z,3.23
2022-11-20T22:34:20.999Z,3.17
2022-11-20T22:36:48.962Z,3.07
2022-11-20T22:39:17.620Z,3.24
2022-11-20T22:41:46.861Z,3.16
2022-11-20T22:44:16.243Z,3.09
2022-11-20T22:46:44.077Z,3.16
2022-11-20T22:49:11.825Z,3.24
2022-11-20T22:51:41.694Z,3.11
2022-11-20T22:54:12.141Z,3.15
2022-11-20T22:56:40.738Z,3.16
2022-11-20T22:59:10.269Z,2.92
2022-11-20T23:01:39.014Z,2.94
2022-11-20T23:04:10.772Z,2.96
2022-11-20T23:06:38.865Z,3.07
2022-11-20T23:09:08.405Z,3.06
2022-11-20T23:11:36.859Z,3.05
2022-11-20T23:14:07.967Z,3.02
2022-11-20T23:16:37.235Z,2.98
2022-11-20T23:19:08.298Z,2.96
2022-11-20T23:21:38.808Z,2.96
2022-11-20T23:24:07.976Z,3.07
2022-11-20T23:26:39.705Z,3.11
2022-11-20T23:29:08.012Z,3.15
2022-11-20T23:31:37.270Z,3.11
2022-11-20T23:34:05.634Z,3.07
2022-11-20T23:36:33.609Z,3.01
2022-11-20T23:39:01.662Z,3.20
2022-11-20T23:41:29.569Z,3.22
2022-11-20T23:43:57.292Z,3.21
2022-11-20T23:46:25.422Z,3.28
2022-11-20T23:48:54.521Z,3.21
2022-11-20T23:51:22.402Z,3.24
2022-11-20T23:53:50.384Z,3.26
2022-11-20T23:56:18.357Z,3.31
2022-11-20T23:58:46.246Z,3.33
